Weather at Veslefrikk B FPU [CLOSED]

Public forecast

Using degrees Celsius for public forecast. Weather courtesy of forecast.io.

Closest aviation weather report (METAR) to Veslefrikk B FPU

Closest report is Oseberg A Platform, 17.6 nm (32.6 km) S.

2024/02/24 16:50 (retrieved 12 minutes ago)

ENOA 241650Z 23019KT 9999 VCSH FEW015CB SCT050 06/03 Q0991 W///S4

Closest aviation forecast (TAF) to Veslefrikk B FPU

Closest forecast is Oseberg A Platform, 17.6 nm (32.6 km) S.

2024/02/24 15:36 (retrieved 1 hour ago)

TAF TAF ENOA 241400Z 2415/2515 23022KT 9999 FEW015TCU BKN030 TEMPO 2415/2515 SHRA BKN014CB